createdAt,value
2023-01-31T00:01:21.520Z,-2.57
2023-01-31T00:03:52.305Z,-2.59
2023-01-31T00:06:26.221Z,-2.55
2023-01-31T00:08:53.974Z,-2.55
2023-01-31T00:11:22.988Z,-2.58
2023-01-31T00:13:51.347Z,-2.58
2023-01-31T00:16:19.194Z,-2.61
2023-01-31T00:18:46.304Z,-2.66
2023-01-31T00:21:15.255Z,-2.64
2023-01-31T00:23:43.547Z,-2.66
2023-01-31T00:26:11.366Z,-2.61
2023-01-31T00:28:39.340Z,-2.55
2023-01-31T00:31:07.217Z,-2.56
2023-01-31T00:33:39.691Z,-2.56
2023-01-31T00:36:16.069Z,-2.58
2023-01-31T00:38:44.706Z,-2.58
2023-01-31T00:41:11.963Z,-2.53
2023-01-31T00:43:38.711Z,-2.54
2023-01-31T00:46:06.339Z,-2.52
2023-01-31T00:48:33.395Z,-2.55
2023-01-31T00:51:00.025Z,-2.50
2023-01-31T00:53:26.681Z,-2.63
2023-01-31T00:55:56.529Z,-2.67
2023-01-31T00:58:23.117Z,-2.66
2023-01-31T01:00:52.604Z,-2.66
2023-01-31T01:03:19.182Z,-2.60
2023-01-31T01:05:45.811Z,-2.67
2023-01-31T01:08:12.425Z,-2.72
2023-01-31T01:10:38.998Z,-2.70
2023-01-31T01:13:08.800Z,-2.69
2023-01-31T01:15:39.189Z,-2.67
2023-01-31T01:18:05.893Z,-2.70
2023-01-31T01:20:32.561Z,-2.73
2023-01-31T01:22:59.538Z,-2.71
2023-01-31T01:25:26.375Z,-2.69
2023-01-31T01:27:53.006Z,-2.68
2023-01-31T01:30:21.459Z,-2.65
2023-01-31T01:32:48.833Z,-2.67
2023-01-31T01:35:15.504Z,-2.77
2023-01-31T01:37:42.115Z,-2.78
2023-01-31T01:40:09.449Z,-2.85
2023-01-31T01:42:36.440Z,-2.91
2023-01-31T01:45:15.820Z,-2.99
2023-01-31T01:47:55.896Z,-2.90
2023-01-31T01:50:28.806Z,-2.91
2023-01-31T01:53:01.167Z,-2.81
2023-01-31T01:55:36.958Z,-2.92
2023-01-31T01:58:36.647Z,-2.91
2023-01-31T02:01:07.798Z,-2.93
2023-01-31T02:03:35.258Z,-2.93
2023-01-31T02:06:06.680Z,-3.01
2023-01-31T02:08:36.314Z,-2.98
2023-01-31T02:11:15.725Z,-3.04
2023-01-31T02:13:42.747Z,-3.01
2023-01-31T02:16:09.482Z,-3.00
2023-01-31T02:18:36.321Z,-2.94
2023-01-31T02:21:21.363Z,-2.86
2023-01-31T02:24:03.180Z,-2.88
2023-01-31T02:26:47.827Z,-2.84
2023-01-31T02:29:14.450Z,-2.84
2023-01-31T02:31:53.369Z,-2.86
2023-01-31T02:35:04.706Z,-2.83
2023-01-31T02:37:49.110Z,-2.92
2023-01-31T02:40:50.213Z,-3.02
2023-01-31T02:43:23.644Z,-3.15
2023-01-31T02:46:08.161Z,-3.16
2023-01-31T02:48:42.472Z,-3.21
2023-01-31T02:51:21.750Z,-3.19
2023-01-31T02:53:56.997Z,-3.18
2023-01-31T02:56:31.615Z,-3.16
2023-01-31T02:59:06.553Z,-3.17
2023-01-31T03:01:37.406Z,-3.10
2023-01-31T03:04:06.607Z,-3.12
2023-01-31T03:06:36.643Z,-3.12
2023-01-31T03:09:22.244Z,-3.21
2023-01-31T03:12:06.969Z,-3.18
2023-01-31T03:14:40.618Z,-3.13
2023-01-31T03:17:33.983Z,-3.04
2023-01-31T03:20:04.303Z,-3.08
2023-01-31T03:22:41.175Z,-3.12
2023-01-31T03:25:11.899Z,-3.05
2023-01-31T03:27:41.218Z,-3.06
2023-01-31T03:30:19.037Z,-3.04
2023-01-31T03:32:52.282Z,-2.98
2023-01-31T03:35:22.377Z,-3.02
2023-01-31T03:37:59.701Z,-2.97
2023-01-31T03:41:16.042Z,-3.00
2023-01-31T03:44:01.719Z,-3.02
2023-01-31T03:46:35.283Z,-3.06
2023-01-31T03:49:08.906Z,-3.10
2023-01-31T03:51:38.378Z,-3.11
2023-01-31T03:54:09.475Z,-3.00
2023-01-31T03:56:47.743Z,-2.96
2023-01-31T03:59:29.875Z,-2.97
2023-01-31T04:02:00.939Z,-2.99
2023-01-31T04:04:42.728Z,-3.03
2023-01-31T04:07:09.838Z,-3.09
2023-01-31T04:09:38.269Z,-3.06
2023-01-31T04:12:06.020Z,-3.03
2023-01-31T04:14:32.680Z,-3.03
2023-01-31T04:16:59.371Z,-3.02
2023-01-31T04:19:26.036Z,-3.05
2023-01-31T04:21:52.753Z,-3.05
2023-01-31T04:24:19.365Z,-3.01
2023-01-31T04:26:46.030Z,-3.00
2023-01-31T04:29:12.691Z,-2.98
2023-01-31T04:31:40.414Z,-2.97
2023-01-31T04:34:07.943Z,-2.99
2023-01-31T04:36:34.820Z,-3.03
2023-01-31T04:39:01.598Z,-3.03
2023-01-31T04:41:31.064Z,-3.00
2023-01-31T04:43:57.766Z,-2.97
2023-01-31T04:46:24.489Z,-2.98
2023-01-31T04:48:51.067Z,-2.90
2023-01-31T04:51:17.718Z,-2.87
2023-01-31T04:53:45.227Z,-2.90
2023-01-31T04:56:11.888Z,-2.91
2023-01-31T04:58:38.538Z,-2.94
2023-01-31T05:01:05.161Z,-2.96
2023-01-31T05:03:31.870Z,-2.97
2023-01-31T05:05:58.485Z,-3.02
2023-01-31T05:08:25.215Z,-3.14
2023-01-31T05:10:58.194Z,-3.20
2023-01-31T05:13:25.436Z,-3.16
2023-01-31T05:15:52.050Z,-3.14
2023-01-31T05:18:18.719Z,-3.04
2023-01-31T05:20:47.867Z,-3.06
2023-01-31T05:23:14.514Z,-3.07
2023-01-31T05:25:41.102Z,-3.01
2023-01-31T05:28:07.793Z,-2.98
2023-01-31T05:30:34.922Z,-3.01
2023-01-31T05:33:01.789Z,-2.94
2023-01-31T05:35:28.552Z,-2.96
2023-01-31T05:37:55.915Z,-3.05
2023-01-31T05:40:23.002Z,-2.96
2023-01-31T05:42:57.499Z,-2.96
2023-01-31T05:45:24.650Z,-2.78
2023-01-31T05:47:51.360Z,-2.75
2023-01-31T05:50:18.710Z,-2.65
2023-01-31T05:52:53.477Z,-2.62
2023-01-31T05:55:21.398Z,-2.58
2023-01-31T05:57:48.398Z,-2.69
2023-01-31T06:00:15.809Z,-2.64
2023-01-31T06:02:42.656Z,-2.52
2023-01-31T06:05:16.605Z,-2.70
2023-01-31T06:07:43.371Z,-2.72
2023-01-31T06:10:11.784Z,-2.65
2023-01-31T06:12:38.527Z,-2.70
2023-01-31T06:15:08.261Z,-2.67
2023-01-31T06:17:37.159Z,-2.66
2023-01-31T06:20:05.354Z,-2.64
2023-01-31T06:22:32.176Z,-2.60
2023-01-31T06:24:59.504Z,-2.64
2023-01-31T06:27:26.209Z,-2.58
2023-01-31T06:29:53.146Z,-2.70
2023-01-31T06:32:19.976Z,-2.72
2023-01-31T06:34:46.524Z,-2.70
2023-01-31T06:37:13.094Z,-2.63
2023-01-31T06:39:39.694Z,-2.63
2023-01-31T06:42:06.651Z,-2.46
2023-01-31T06:44:33.700Z,-2.49
2023-01-31T06:47:01.876Z,-2.46
2023-01-31T06:49:28.716Z,-2.38
2023-01-31T06:51:55.630Z,-2.41
2023-01-31T06:54:22.490Z,-2.25
2023-01-31T06:56:49.177Z,-2.06
2023-01-31T06:59:15.888Z,-1.98
2023-01-31T07:01:42.566Z,-1.96
2023-01-31T07:04:09.313Z,-2.09
2023-01-31T07:06:36.009Z,-1.93
2023-01-31T07:09:02.750Z,-1.80
2023-01-31T07:11:30.167Z,-1.88
2023-01-31T07:13:57.352Z,-1.85
2023-01-31T07:16:25.593Z,-1.85
2023-01-31T07:18:55.468Z,-1.91
2023-01-31T07:21:23.937Z,-1.95
2023-01-31T07:23:51.071Z,-1.93
2023-01-31T07:26:18.037Z,-1.89
2023-01-31T07:28:44.637Z,-1.81
2023-01-31T07:31:15.731Z,-1.70
2023-01-31T07:33:42.691Z,-1.65
2023-01-31T07:36:13.398Z,-1.68
2023-01-31T07:38:40.244Z,-1.60
2023-01-31T07:41:08.640Z,-1.52
2023-01-31T07:43:35.266Z,-1.45
2023-01-31T07:46:02.492Z,-1.43
2023-01-31T07:48:29.792Z,-1.39
2023-01-31T07:51:01.589Z,-1.46
2023-01-31T07:53:33.499Z,-1.49
2023-01-31T07:56:11.569Z,-1.48
2023-01-31T07:58:41.497Z,-1.48
2023-01-31T08:01:33.116Z,-1.44
2023-01-31T08:04:10.579Z,-1.38
2023-01-31T08:06:46.441Z,-1.39
2023-01-31T08:09:13.089Z,-1.35
2023-01-31T08:11:39.792Z,-1.33
2023-01-31T08:14:08.702Z,-1.28
2023-01-31T08:16:36.755Z,-1.27
2023-01-31T08:19:03.767Z,-1.25
2023-01-31T08:21:30.619Z,-1.31
2023-01-31T08:23:57.372Z,-1.33
2023-01-31T08:26:24.283Z,-1.24
2023-01-31T08:28:53.935Z,-1.24
2023-01-31T08:31:22.972Z,-1.31
2023-01-31T08:33:52.941Z,-1.36
2023-01-31T08:36:25.496Z,-1.33
2023-01-31T08:38:52.817Z,-1.30
2023-01-31T08:41:21.745Z,-1.34
2023-01-31T08:43:57.458Z,-1.33
2023-01-31T08:46:26.904Z,-1.21
2023-01-31T08:48:53.723Z,-1.17
2023-01-31T08:51:20.713Z,-1.16
2023-01-31T08:53:48.610Z,-1.16
2023-01-31T08:56:15.908Z,-1.11
2023-01-31T08:58:44.577Z,-0.93
2023-01-31T09:01:14.571Z,-0.83
2023-01-31T09:03:43.863Z,-0.82
2023-01-31T09:06:16.104Z,-0.79
2023-01-31T09:08:43.315Z,-0.91
2023-01-31T09:11:17.395Z,-1.03
2023-01-31T09:13:44.734Z,-1.08
2023-01-31T09:16:14.067Z,-1.05
2023-01-31T09:18:41.370Z,-1.03
2023-01-31T09:21:11.210Z,-1.02
2023-01-31T09:23:42.103Z,-1.01
2023-01-31T09:26:10.847Z,-0.97
2023-01-31T09:28:37.887Z,-0.86
2023-01-31T09:31:10.660Z,-0.80
2023-01-31T09:33:37.667Z,-0.79
2023-01-31T09:36:07.546Z,-0.79
2023-01-31T09:38:34.986Z,-0.69
2023-01-31T09:41:05.081Z,-0.60
2023-01-31T09:43:40.858Z,-0.45
2023-01-31T09:46:13.572Z,-0.42
2023-01-31T09:48:44.200Z,-0.33
2023-01-31T09:51:14.245Z,-0.32
2023-01-31T09:53:41.968Z,-0.38
2023-01-31T09:56:23.659Z,-0.40
2023-01-31T09:58:57.159Z,-0.43
2023-01-31T10:01:32.215Z,-0.47
2023-01-31T10:04:24.714Z,-0.49
2023-01-31T10:07:04.954Z,-0.48
2023-01-31T10:09:40.783Z,-0.41
2023-01-31T10:12:29.426Z,-0.24
2023-01-31T10:15:01.567Z,-0.08
2023-01-31T10:17:40.285Z,-0.03
2023-01-31T10:20:42.927Z,0.13
2023-01-31T10:23:25.589Z,0.14
2023-01-31T10:26:01.692Z,0.13
2023-01-31T10:29:06.651Z,0.29
2023-01-31T10:31:43.501Z,0.30
2023-01-31T10:34:32.670Z,0.14
2023-01-31T10:37:26.037Z,-0.03
2023-01-31T10:39:56.888Z,-0.16
2023-01-31T10:42:33.293Z,-0.15
2023-01-31T10:45:08.974Z,0.00
2023-01-31T10:47:45.560Z,0.05
2023-01-31T10:50:16.695Z,0.06
2023-01-31T10:52:52.417Z,-0.02
2023-01-31T10:55:49.917Z,0.07
2023-01-31T10:58:20.003Z,-0.01
2023-01-31T11:00:49.496Z,0.01
2023-01-31T11:03:16.398Z,-0.01
2023-01-31T11:05:58.129Z,0.01
2023-01-31T11:08:31.032Z,-0.08
2023-01-31T11:11:04.608Z,-0.01
2023-01-31T11:13:31.227Z,0.02
2023-01-31T11:16:00.571Z,-0.09
2023-01-31T11:18:32.387Z,-0.04
2023-01-31T11:21:02.056Z,0.02
2023-01-31T11:23:32.085Z,0.03
2023-01-31T11:26:00.122Z,-0.04
2023-01-31T11:28:38.530Z,0.02
2023-01-31T11:31:10.117Z,0.10
2023-01-31T11:33:57.224Z,0.04
2023-01-31T11:36:24.414Z,0.11
2023-01-31T11:38:51.324Z,0.16
2023-01-31T11:41:36.946Z,0.10
2023-01-31T11:44:16.539Z,0.05
2023-01-31T11:46:52.360Z,0.01
2023-01-31T11:49:21.998Z,-0.04
2023-01-31T11:51:53.891Z,-0.09
2023-01-31T11:54:28.769Z,-0.13
2023-01-31T11:56:56.431Z,-0.04
2023-01-31T11:59:28.210Z,-0.09
2023-01-31T12:01:58.736Z,-0.15
2023-01-31T12:04:42.185Z,-0.15
2023-01-31T12:07:31.929Z,-0.09
2023-01-31T12:09:58.663Z,-0.02
2023-01-31T12:12:35.721Z,0.01
2023-01-31T12:15:14.290Z,-0.06
2023-01-31T12:17:45.972Z,-0.03
2023-01-31T12:20:29.305Z,-0.03
2023-01-31T12:23:14.218Z,-0.08
2023-01-31T12:25:40.751Z,-0.10
2023-01-31T12:28:28.862Z,-0.13
2023-01-31T12:31:17.241Z,-0.15
2023-01-31T12:34:41.898Z,-0.20
2023-01-31T12:37:16.450Z,-0.19
2023-01-31T12:39:43.036Z,-0.18
2023-01-31T12:42:09.675Z,-0.17
2023-01-31T12:44:50.152Z,-0.17
2023-01-31T12:47:34.926Z,-0.16
2023-01-31T12:50:04.504Z,-0.14
2023-01-31T12:52:52.768Z,-0.14
2023-01-31T12:55:44.239Z,-0.09
2023-01-31T12:58:16.616Z,-0.12
2023-01-31T13:01:02.117Z,-0.11
2023-01-31T13:03:50.746Z,-0.19
2023-01-31T13:06:22.455Z,-0.19
2023-01-31T13:09:18.860Z,-0.27
2023-01-31T13:12:14.489Z,-0.26
2023-01-31T13:14:45.591Z,-0.31
2023-01-31T13:17:15.918Z,-0.43
2023-01-31T13:19:45.622Z,-0.36
2023-01-31T13:22:18.864Z,-0.35
2023-01-31T13:24:49.966Z,-0.31
2023-01-31T13:27:28.047Z,-0.32
2023-01-31T13:30:17.730Z,-0.26
2023-01-31T13:32:51.031Z,-0.24
2023-01-31T13:35:32.760Z,-0.29
2023-01-31T13:38:08.120Z,-0.35
2023-01-31T13:40:57.749Z,-0.34
2023-01-31T13:43:24.616Z,-0.30
2023-01-31T13:45:57.748Z,-0.27
2023-01-31T13:48:38.052Z,-0.30
2023-01-31T13:51:32.814Z,-0.28
2023-01-31T13:54:23.527Z,-0.29
2023-01-31T13:56:54.601Z,-0.32
2023-01-31T13:59:25.642Z,-0.32
2023-01-31T14:01:55.094Z,-0.37
2023-01-31T14:04:33.747Z,-0.37
2023-01-31T14:07:02.704Z,-0.39
2023-01-31T14:10:02.474Z,-0.40
2023-01-31T14:12:37.033Z,-0.43
2023-01-31T14:15:23.606Z,-0.44
2023-01-31T14:17:52.949Z,-0.45
2023-01-31T14:20:31.227Z,-0.51
2023-01-31T14:23:45.439Z,-0.52
2023-01-31T14:26:36.449Z,-0.51
2023-01-31T14:29:30.593Z,-0.49
2023-01-31T14:31:57.836Z,-0.53
2023-01-31T14:34:28.747Z,-0.51
2023-01-31T14:37:40.132Z,-0.46
2023-01-31T14:40:07.907Z,-0.45
2023-01-31T14:42:41.868Z,-0.46
2023-01-31T14:45:26.535Z,-0.49
2023-01-31T14:48:04.099Z,-0.45
2023-01-31T14:50:53.957Z,-0.39
2023-01-31T14:53:47.389Z,-0.44
2023-01-31T14:56:13.979Z,-0.37
2023-01-31T14:58:48.067Z,-0.38
2023-01-31T15:01:20.505Z,-0.36
2023-01-31T15:03:56.338Z,-0.35
2023-01-31T15:06:22.901Z,-0.32
2023-01-31T15:08:51.500Z,-0.35
2023-01-31T15:11:40.964Z,-0.35
2023-01-31T15:14:34.623Z,-0.36
2023-01-31T15:17:27.195Z,-0.32
2023-01-31T15:20:07.528Z,-0.40
2023-01-31T15:22:41.472Z,-0.37
2023-01-31T15:25:38.271Z,-0.40
2023-01-31T15:28:07.593Z,-0.38
2023-01-31T15:30:38.490Z,-0.40
2023-01-31T15:33:13.491Z,-0.43
2023-01-31T15:36:31.872Z,-0.44
2023-01-31T15:39:06.088Z,-0.37
2023-01-31T15:41:40.881Z,-0.46
2023-01-31T15:44:18.212Z,-0.42
2023-01-31T15:46:47.024Z,-0.46
2023-01-31T15:49:40.008Z,-0.52
2023-01-31T15:52:25.464Z,-0.50
2023-01-31T15:54:57.817Z,-0.48
2023-01-31T15:57:57.752Z,-0.47
2023-01-31T16:00:31.129Z,-0.45
2023-01-31T16:03:01.140Z,-0.47
2023-01-31T16:05:33.981Z,-0.43
2023-01-31T16:08:19.377Z,-0.43
2023-01-31T16:10:49.064Z,-0.47
2023-01-31T16:13:16.787Z,-0.47
2023-01-31T16:15:44.276Z,-0.45
2023-01-31T16:18:12.335Z,-0.40
2023-01-31T16:20:53.869Z,-0.37
2023-01-31T16:23:27.069Z,-0.41
2023-01-31T16:26:06.136Z,-0.43
2023-01-31T16:28:42.815Z,-0.39
2023-01-31T16:31:17.975Z,-0.39
2023-01-31T16:33:49.901Z,-0.37
2023-01-31T16:36:26.034Z,-0.32
2023-01-31T16:39:01.910Z,-0.32
2023-01-31T16:41:53.212Z,-0.31
2023-01-31T16:44:22.097Z,-0.33
2023-01-31T16:46:51.288Z,-0.35
2023-01-31T16:49:28.617Z,-0.34
2023-01-31T16:52:16.318Z,-0.34
2023-01-31T16:54:51.855Z,-0.38
2023-01-31T16:57:37.500Z,-0.39
2023-01-31T17:00:07.760Z,-0.37
2023-01-31T17:02:40.670Z,-0.37
2023-01-31T17:05:23.014Z,-0.37
2023-01-31T17:07:50.050Z,-0.45
2023-01-31T17:10:27.138Z,-0.39
2023-01-31T17:13:01.988Z,-0.36
2023-01-31T17:15:28.671Z,-0.39
2023-01-31T17:17:56.725Z,-0.37
2023-01-31T17:20:23.828Z,-0.38
2023-01-31T17:22:57.167Z,-0.36
2023-01-31T17:25:33.164Z,-0.36
2023-01-31T17:27:59.752Z,-0.38
2023-01-31T17:30:30.253Z,-0.34
2023-01-31T17:32:57.940Z,-0.34
2023-01-31T17:35:29.536Z,-0.35
2023-01-31T17:37:56.232Z,-0.30
2023-01-31T17:40:22.996Z,-0.32
2023-01-31T17:42:53.725Z,-0.34
2023-01-31T17:45:20.722Z,-0.30
2023-01-31T17:47:47.506Z,-0.35
2023-01-31T17:50:19.495Z,-0.41
2023-01-31T17:52:46.419Z,-0.40
2023-01-31T17:55:14.316Z,-0.40
2023-01-31T17:57:41.659Z,-0.38
2023-01-31T18:00:12.682Z,-0.43
2023-01-31T18:02:42.430Z,-0.39
2023-01-31T18:05:13.115Z,-0.41
2023-01-31T18:07:40.479Z,-0.42
2023-01-31T18:10:08.298Z,-0.39
2023-01-31T18:12:36.546Z,-0.37
2023-01-31T18:15:04.112Z,-0.40
2023-01-31T18:17:30.755Z,-0.41
2023-01-31T18:19:57.549Z,-0.44
2023-01-31T18:22:25.112Z,-0.42
2023-01-31T18:24:52.545Z,-0.39
2023-01-31T18:27:19.473Z,-0.37
2023-01-31T18:29:46.120Z,-0.37
2023-01-31T18:32:12.915Z,-0.39
2023-01-31T18:34:39.593Z,-0.42
2023-01-31T18:37:13.107Z,-0.44
2023-01-31T18:39:39.820Z,-0.42
2023-01-31T18:42:08.985Z,-0.40
2023-01-31T18:44:36.745Z,-0.39
2023-01-31T18:47:03.390Z,-0.44
2023-01-31T18:49:30.213Z,-0.46
2023-01-31T18:51:56.956Z,-0.48
2023-01-31T18:54:26.603Z,-0.45
2023-01-31T18:56:58.347Z,-0.47
2023-01-31T18:59:25.105Z,-0.51
2023-01-31T19:01:52.531Z,-0.49
2023-01-31T19:04:19.871Z,-0.46
2023-01-31T19:06:46.649Z,-0.50
2023-01-31T19:09:13.748Z,-0.50
2023-01-31T19:11:41.774Z,-0.51
2023-01-31T19:14:14.368Z,-0.51
2023-01-31T19:16:42.679Z,-0.55
2023-01-31T19:19:09.899Z,-0.59
2023-01-31T19:21:37.907Z,-0.65
2023-01-31T19:24:07.304Z,-0.63
2023-01-31T19:26:35.433Z,-0.61
2023-01-31T19:29:02.903Z,-0.60
2023-01-31T19:31:31.397Z,-0.58
2023-01-31T19:34:03.560Z,-0.62
2023-01-31T19:36:33.156Z,-0.65
2023-01-31T19:39:01.270Z,-0.69
2023-01-31T19:41:28.972Z,-0.76
2023-01-31T19:43:59.939Z,-0.74
2023-01-31T19:46:33.013Z,-0.79
2023-01-31T19:49:00.416Z,-0.82
2023-01-31T19:51:27.732Z,-0.84
2023-01-31T19:53:59.079Z,-0.87
2023-01-31T19:56:25.851Z,-0.93
2023-01-31T19:58:52.501Z,-1.02
2023-01-31T20:01:19.624Z,-1.08
2023-01-31T20:03:46.894Z,-1.11
2023-01-31T20:06:19.588Z,-1.21
2023-01-31T20:08:51.029Z,-1.26
2023-01-31T20:11:18.389Z,-1.23
2023-01-31T20:13:45.321Z,-1.24
2023-01-31T20:16:13.358Z,-1.26
2023-01-31T20:18:41.546Z,-1.28
2023-01-31T20:21:09.383Z,-1.34
2023-01-31T20:23:36.479Z,-1.36
2023-01-31T20:26:03.576Z,-1.44
2023-01-31T20:28:30.583Z,-1.52
2023-01-31T20:31:05.865Z,-1.49
2023-01-31T20:33:35.609Z,-1.56
2023-01-31T20:36:03.039Z,-1.60
2023-01-31T20:38:30.838Z,-1.58
2023-01-31T20:40:57.579Z,-1.59
2023-01-31T20:43:26.335Z,-1.57
2023-01-31T20:45:53.349Z,-1.59
2023-01-31T20:48:20.077Z,-1.58
2023-01-31T20:50:57.739Z,-1.54
2023-01-31T20:53:25.102Z,-1.52
2023-01-31T20:55:58.921Z,-1.49
2023-01-31T20:58:27.165Z,-1.47
2023-01-31T21:00:55.049Z,-1.47
2023-01-31T21:03:23.650Z,-1.50
2023-01-31T21:05:51.145Z,-1.42
2023-01-31T21:08:19.084Z,-1.40
2023-01-31T21:10:50.777Z,-1.39
2023-01-31T21:13:18.099Z,-1.46
2023-01-31T21:15:55.149Z,-1.44
2023-01-31T21:18:24.983Z,-1.40
2023-01-31T21:20:52.187Z,-1.38
2023-01-31T21:23:18.819Z,-1.42
2023-01-31T21:25:45.546Z,-1.41
2023-01-31T21:28:12.371Z,-1.42
2023-01-31T21:30:39.094Z,-1.43
2023-01-31T21:33:05.848Z,-1.43
2023-01-31T21:35:32.518Z,-1.41
2023-01-31T21:37:59.136Z,-1.41
2023-01-31T21:40:26.015Z,-1.39
2023-01-31T21:42:54.111Z,-1.47
2023-01-31T21:45:39.886Z,-1.42
2023-01-31T21:48:27.953Z,-1.38
2023-01-31T21:50:58.132Z,-1.41
2023-01-31T21:53:26.938Z,-1.46
2023-01-31T21:56:07.335Z,-1.51
2023-01-31T21:58:35.161Z,-1.52
2023-01-31T22:01:06.126Z,-1.54
2023-01-31T22:03:34.016Z,-1.55
2023-01-31T22:06:05.286Z,-1.52
2023-01-31T22:08:32.426Z,-1.52
2023-01-31T22:11:04.634Z,-1.54
2023-01-31T22:13:32.320Z,-1.52
2023-01-31T22:16:00.599Z,-1.57
2023-01-31T22:18:29.373Z,-1.59
2023-01-31T22:21:38.892Z,-1.62
2023-01-31T22:24:07.865Z,-1.63
2023-01-31T22:26:37.597Z,-1.65
2023-01-31T22:29:06.983Z,-1.63
2023-01-31T22:31:34.151Z,-1.69
2023-01-31T22:34:01.246Z,-1.76
2023-01-31T22:36:28.249Z,-1.74
2023-01-31T22:38:55.317Z,-1.72
2023-01-31T22:41:22.339Z,-1.72
2023-01-31T22:43:51.253Z,-1.72
2023-01-31T22:46:20.769Z,-1.74
2023-01-31T22:48:49.527Z,-1.70
2023-01-31T22:51:20.815Z,-1.69
2023-01-31T22:53:48.136Z,-1.75
2023-01-31T22:56:17.880Z,-1.71
2023-01-31T22:58:45.070Z,-1.72
2023-01-31T23:01:20.502Z,-1.71
2023-01-31T23:03:48.512Z,-1.70
2023-01-31T23:06:16.420Z,-1.70
2023-01-31T23:08:43.471Z,-1.75
2023-01-31T23:11:12.797Z,-1.75
2023-01-31T23:13:40.117Z,-1.73
2023-01-31T23:16:08.580Z,-1.73
2023-01-31T23:18:35.693Z,-1.74
2023-01-31T23:21:10.393Z,-1.73
2023-01-31T23:23:37.481Z,-1.77
2023-01-31T23:26:05.041Z,-1.78
2023-01-31T23:28:32.453Z,-1.80
2023-01-31T23:30:59.264Z,-1.78
2023-01-31T23:33:26.108Z,-1.80
2023-01-31T23:35:52.927Z,-1.79
2023-01-31T23:38:19.798Z,-1.79
2023-01-31T23:40:54.104Z,-1.79
2023-01-31T23:43:22.015Z,-1.80
2023-01-31T23:45:49.493Z,-1.80
2023-01-31T23:48:16.285Z,-1.79
2023-01-31T23:50:42.970Z,-1.80
2023-01-31T23:53:09.673Z,-1.82
2023-01-31T23:55:37.229Z,-1.82
2023-01-31T23:58:04.102Z,-1.85
